createdAt,value
2022-10-01T00:02:09.696Z,19.63
2022-10-01T00:04:38.037Z,22.85
2022-10-01T00:07:10.262Z,20.73
2022-10-01T00:09:39.560Z,17.15
2022-10-01T00:12:09.157Z,19.50
2022-10-01T00:14:39.388Z,18.95
2022-10-01T00:17:07.229Z,16.83
2022-10-01T00:19:35.121Z,16.85
2022-10-01T00:22:03.077Z,16.73
2022-10-01T00:24:30.909Z,21.52
2022-10-01T00:27:00.427Z,20.80
2022-10-01T00:29:28.334Z,18.27
2022-10-01T00:31:57.124Z,23.17
2022-10-01T00:34:25.429Z,18.42
2022-10-01T00:36:53.291Z,17.65
2022-10-01T00:39:21.292Z,19.33
2022-10-01T00:41:49.862Z,19.42
2022-10-01T00:44:33.300Z,17.50
2022-10-01T00:47:07.193Z,22.15
2022-10-01T00:49:38.878Z,17.23
2022-10-01T00:52:11.060Z,15.88
2022-10-01T00:54:44.205Z,15.35
2022-10-01T00:57:15.218Z,18.48
2022-10-01T00:59:45.654Z,21.20
2022-10-01T01:02:14.042Z,25.52
2022-10-01T01:04:43.117Z,20.45
2022-10-01T01:07:11.487Z,22.33
2022-10-01T01:09:43.863Z,24.75
2022-10-01T01:12:24.604Z,20.90
2022-10-01T01:15:04.676Z,23.88
2022-10-01T01:17:38.619Z,19.38
2022-10-01T01:20:31.765Z,22.67
2022-10-01T01:23:12.293Z,20.75
2022-10-01T01:25:47.239Z,20.05
2022-10-01T01:28:24.341Z,19.95
2022-10-01T06:15:06.524Z,59.92
2022-10-01T06:20:02.704Z,56.20
2022-10-01T06:22:30.539Z,93.40
2022-10-01T06:24:58.759Z,91.35
2022-10-01T06:27:26.636Z,52.70
2022-10-01T06:29:54.682Z,50.00
2022-10-01T06:32:23.899Z,54.72
2022-10-01T06:34:52.317Z,49.60
2022-10-01T06:37:20.259Z,41.13
2022-10-01T06:39:48.156Z,31.90
2022-10-01T06:42:16.040Z,31.85
2022-10-01T06:44:43.879Z,29.15
2022-10-01T06:47:11.736Z,31.45
2022-10-01T06:49:45.573Z,36.63
2022-10-01T06:52:33.272Z,32.28
2022-10-01T06:55:01.615Z,37.38
2022-10-01T06:57:30.206Z,34.40
2022-10-01T06:59:58.433Z,31.75
2022-10-01T07:02:30.060Z,32.80
2022-10-01T07:05:00.004Z,26.77
2022-10-01T07:09:58.290Z,25.58
2022-10-01T07:12:26.497Z,22.90
2022-10-01T07:14:54.567Z,21.45
2022-10-01T07:17:22.711Z,21.60
2022-10-01T07:19:50.582Z,20.95
2022-10-01T07:22:20.294Z,23.38
2022-10-01T07:24:48.198Z,22.67
2022-10-01T07:27:16.112Z,18.20
2022-10-01T07:29:43.968Z,20.90
2022-10-01T07:32:12.037Z,18.40
2022-10-01T07:34:41.031Z,18.85
2022-10-01T07:37:09.421Z,17.77
2022-10-01T07:39:38.824Z,17.30
2022-10-01T07:42:06.905Z,16.60
2022-10-01T07:44:34.749Z,14.68
2022-10-01T07:47:02.594Z,17.10
2022-10-01T07:49:30.485Z,15.90
2022-10-01T07:51:59.001Z,16.48
2022-10-01T07:54:27.132Z,16.55
2022-10-01T07:56:56.712Z,17.83
2022-10-01T07:59:25.038Z,17.95
2022-10-01T08:01:53.767Z,17.92
2022-10-01T08:04:48.467Z,23.98
2022-10-01T08:07:16.395Z,20.90
2022-10-01T08:09:44.232Z,17.95
2022-10-01T08:12:13.478Z,15.63
2022-10-01T08:14:41.318Z,16.92
2022-10-01T08:17:09.173Z,19.77
2022-10-01T08:19:37.313Z,15.32
2022-10-01T08:22:05.253Z,16.80
2022-10-01T08:24:34.714Z,19.08
2022-10-01T08:27:02.637Z,19.58
2022-10-01T08:29:34.260Z,20.63
2022-10-01T08:32:02.459Z,17.50
2022-10-01T08:34:31.195Z,20.23
2022-10-01T08:36:59.075Z,18.98
2022-10-01T08:39:27.057Z,18.17
2022-10-01T08:42:02.984Z,16.40
2022-10-01T08:44:37.416Z,19.98
2022-10-01T08:47:12.770Z,21.02
2022-10-01T08:49:45.831Z,20.00
2022-10-01T08:52:21.204Z,18.65
2022-10-01T08:54:53.616Z,17.83
2022-10-01T08:57:25.528Z,20.05
2022-10-01T08:59:59.978Z,19.15
2022-10-01T09:02:30.054Z,19.40
2022-10-01T09:05:01.800Z,22.90
2022-10-01T09:07:50.574Z,18.52
2022-10-01T09:10:28.780Z,19.30
2022-10-01T09:13:19.026Z,17.50
2022-10-01T09:15:58.517Z,20.77
2022-10-01T09:18:38.453Z,17.60
2022-10-01T09:23:47.268Z,16.75
2022-10-01T09:26:15.272Z,17.40
2022-10-01T09:28:44.695Z,19.65
2022-10-01T09:31:19.688Z,19.17
2022-10-01T09:33:56.205Z,18.40
2022-10-01T09:36:33.352Z,21.00
2022-10-01T09:39:13.107Z,19.83
2022-10-01T09:41:41.105Z,20.65
2022-10-01T09:44:18.813Z,19.20
2022-10-01T09:46:48.606Z,21.15
2022-10-01T09:49:27.371Z,22.70
2022-10-01T09:52:02.641Z,21.63
2022-10-01T09:54:35.333Z,22.02
2022-10-01T09:57:09.306Z,20.13
2022-10-01T09:59:42.845Z,17.65
2022-10-01T10:02:18.680Z,18.00
2022-10-01T10:04:46.679Z,19.30
2022-10-01T10:07:19.879Z,22.70
2022-10-01T10:09:47.771Z,19.00
2022-10-01T10:12:30.436Z,18.20
2022-10-01T10:15:07.149Z,21.17
2022-10-01T10:17:37.885Z,24.13
2022-10-01T10:20:17.258Z,21.90
2022-10-01T15:01:56.458Z,9.57
2022-10-01T15:04:24.467Z,8.35
2022-10-01T15:06:52.574Z,9.35
2022-10-01T15:09:20.725Z,11.27
2022-10-01T15:11:50.472Z,9.00
2022-10-01T15:14:22.526Z,7.95
2022-10-01T15:16:50.990Z,8.15
2022-10-01T15:19:22.909Z,9.63
2022-10-01T15:21:54.704Z,11.07
2022-10-01T15:24:27.098Z,8.95
2022-10-01T15:26:57.710Z,11.35
2022-10-01T15:29:26.979Z,11.63
2022-10-01T15:31:58.068Z,14.15
2022-10-01T15:34:27.625Z,14.35
2022-10-01T15:36:56.377Z,9.55
2022-10-01T15:39:29.903Z,7.22
2022-10-01T15:41:59.180Z,9.00
2022-10-01T15:44:50.269Z,8.57
2022-10-01T15:47:32.884Z,8.70
2022-10-01T15:50:17.076Z,6.40
2022-10-01T15:52:52.943Z,9.90
2022-10-01T15:55:24.513Z,10.98
2022-10-01T15:57:56.670Z,13.80
2022-10-01T16:00:28.231Z,11.13
2022-10-01T16:02:58.314Z,11.35
2022-10-01T16:05:30.366Z,8.90
2022-10-01T16:07:59.595Z,9.63
2022-10-01T16:10:36.617Z,8.85
2022-10-01T16:13:35.651Z,11.30
2022-10-01T16:16:18.824Z,8.80
2022-10-01T16:18:52.422Z,8.88
2022-10-01T16:21:21.187Z,8.45
2022-10-01T16:23:50.424Z,13.02
2022-10-01T16:26:36.019Z,8.35
2022-10-01T16:29:07.839Z,11.93
2022-10-01T16:31:40.152Z,8.75
2022-10-01T16:34:12.845Z,9.35
2022-10-01T16:36:41.150Z,9.93
2022-10-01T16:39:08.971Z,10.35
2022-10-01T16:41:37.233Z,9.55
2022-10-01T16:44:06.149Z,10.68
2022-10-01T16:46:34.392Z,13.35
2022-10-01T16:49:09.955Z,11.65
2022-10-01T16:51:37.865Z,9.52
2022-10-01T16:54:07.676Z,11.90
2022-10-01T16:56:35.899Z,10.20
2022-10-01T16:59:04.030Z,8.80
2022-10-01T17:01:32.146Z,9.75
2022-10-01T17:04:00.016Z,9.82
2022-10-01T17:06:29.222Z,9.63
2022-10-01T17:08:57.090Z,13.00
2022-10-01T17:11:26.970Z,11.10
2022-10-01T17:16:24.748Z,11.13
2022-10-01T17:18:52.761Z,13.65
2022-10-01T17:21:20.602Z,10.30
2022-10-01T17:23:53.314Z,12.93
2022-10-01T17:26:21.844Z,12.70
2022-10-01T17:28:49.795Z,11.40
2022-10-01T17:31:18.273Z,10.98
2022-10-01T17:33:46.271Z,13.02
2022-10-01T17:36:14.127Z,12.43
2022-10-01T17:38:42.287Z,10.63
2022-10-01T17:41:11.689Z,13.25
2022-10-01T17:43:41.306Z,12.75
2022-10-01T17:46:09.257Z,16.02
2022-10-01T17:48:37.240Z,13.02
2022-10-01T17:51:07.603Z,18.13
2022-10-01T17:53:42.329Z,16.42
2022-10-01T17:56:14.767Z,15.50
2022-10-01T17:58:45.519Z,13.27
2022-10-01T18:01:16.554Z,12.50
2022-10-01T18:03:44.594Z,10.98
2022-10-01T18:06:15.253Z,10.40
2022-10-01T18:08:58.745Z,10.38
2022-10-01T18:11:29.297Z,7.38
2022-10-01T18:13:57.716Z,7.25
2022-10-01T18:16:26.418Z,6.63
2022-10-01T18:22:13.967Z,7.88
2022-10-01T18:24:42.202Z,7.88
2022-10-01T18:27:11.379Z,7.15
2022-10-01T18:29:39.776Z,6.72
2022-10-01T18:32:16.869Z,5.97
2022-10-01T18:34:50.852Z,7.30
2022-10-01T18:37:29.746Z,7.10
2022-10-01T18:40:00.740Z,6.18
2022-10-01T18:42:35.713Z,5.80
2022-10-01T18:45:08.091Z,6.75
2022-10-01T18:47:46.592Z,8.52
2022-10-01T18:50:25.345Z,6.55
2022-10-01T18:53:11.843Z,7.65
2022-10-01T18:56:09.852Z,5.55
2022-10-01T18:59:01.555Z,5.97
2022-10-01T19:01:39.487Z,4.93
2022-10-01T19:04:28.824Z,5.35
2022-10-01T19:07:09.483Z,6.35
2022-10-01T19:09:51.909Z,4.95
2022-10-01T19:12:36.607Z,6.68
2022-10-01T19:15:26.501Z,5.47
2022-10-01T19:23:35.050Z,4.30
2022-10-01T19:26:10.847Z,4.85
2022-10-01T19:28:56.001Z,4.07
2022-10-01T19:31:32.540Z,6.72
2022-10-01T19:34:06.137Z,8.35
2022-10-01T19:36:38.316Z,5.55
2022-10-01T19:39:12.090Z,4.68
2022-10-01T19:41:44.396Z,5.65
2022-10-01T19:44:16.301Z,4.30
2022-10-01T19:46:48.283Z,4.15
2022-10-01T19:49:21.430Z,7.25
2022-10-01T19:51:56.309Z,4.75
2022-10-01T19:54:29.027Z,4.50
2022-10-01T19:57:00.929Z,5.25
2022-10-01T19:59:30.867Z,6.05
2022-10-01T20:04:38.078Z,5.28
2022-10-01T20:07:11.503Z,5.13
2022-10-01T20:09:45.288Z,7.03
2022-10-01T20:12:25.536Z,8.68
2022-10-01T20:15:09.801Z,6.75
2022-10-01T20:17:49.123Z,4.38
2022-10-01T20:20:23.433Z,3.45
2022-10-01T20:23:04.567Z,5.18
2022-10-01T20:25:39.318Z,3.75
2022-10-01T20:28:14.397Z,2.83
2022-10-01T20:30:50.788Z,3.05
2022-10-01T20:33:30.029Z,3.92
2022-10-01T20:36:03.520Z,2.08
2022-10-01T20:38:36.237Z,4.25
2022-10-01T20:41:10.897Z,3.35
2022-10-01T20:43:44.414Z,3.58
2022-10-01T20:46:16.009Z,3.92
2022-10-01T20:48:50.573Z,3.20
2022-10-01T20:51:24.912Z,4.18
2022-10-01T20:53:56.985Z,3.80
2022-10-01T20:56:31.502Z,3.13
2022-10-01T20:59:04.546Z,3.08
2022-10-01T21:01:37.308Z,4.50
2022-10-01T21:04:12.129Z,4.82
2022-10-01T21:06:44.486Z,5.50
2022-10-01T21:09:18.955Z,3.45
2022-10-01T21:11:50.908Z,5.50
2022-10-01T21:14:26.135Z,4.30
2022-10-01T21:17:20.013Z,6.07
2022-10-01T21:20:03.420Z,4.15
2022-10-01T21:22:42.869Z,4.97
2022-10-01T21:25:18.652Z,4.95
2022-10-01T21:28:07.281Z,5.80
2022-10-01T21:30:43.696Z,6.65
2022-10-01T21:33:16.801Z,5.18
2022-10-01T21:35:52.302Z,7.00
2022-10-01T21:38:31.992Z,6.00
2022-10-01T21:41:27.413Z,3.63
2022-10-01T21:44:18.890Z,2.67
2022-10-01T21:46:55.945Z,7.50
2022-10-01T21:49:35.260Z,5.53
2022-10-01T21:52:15.495Z,6.03
2022-10-01T21:55:06.848Z,5.68
2022-10-01T21:57:52.759Z,3.88
2022-10-01T22:00:47.074Z,3.35
2022-10-01T22:03:22.959Z,5.45
2022-10-01T22:05:57.802Z,7.13
2022-10-01T22:08:43.708Z,7.05
2022-10-01T22:11:15.864Z,5.28
2022-10-01T22:13:51.537Z,4.72
2022-10-01T22:16:21.993Z,6.60
2022-10-01T22:18:53.948Z,3.58
2022-10-01T22:21:26.717Z,6.80
2022-10-01T22:24:02.844Z,5.80
2022-10-01T22:26:35.137Z,7.10
2022-10-01T22:29:07.719Z,3.53
2022-10-01T22:31:37.585Z,3.53
2022-10-01T22:36:42.525Z,8.13
2022-10-01T22:39:18.678Z,4.30
2022-10-01T22:41:52.048Z,6.65
2022-10-01T22:44:22.035Z,6.85
2022-10-01T22:49:37.958Z,5.40
2022-10-01T22:52:18.185Z,5.78
2022-10-01T22:54:59.358Z,5.28
2022-10-01T22:57:48.134Z,6.28
2022-10-01T23:00:17.345Z,5.22
2022-10-01T23:02:55.685Z,6.40
2022-10-01T23:05:39.459Z,7.03
2022-10-01T23:08:17.430Z,4.57
2022-10-01T23:10:54.354Z,4.72
2022-10-01T23:13:30.955Z,5.72
2022-10-01T23:16:07.026Z,5.72
2022-10-01T23:18:46.051Z,8.57
2022-10-01T23:21:25.087Z,3.60
2022-10-01T23:24:03.834Z,19.17
2022-10-01T23:26:41.025Z,4.93
2022-10-01T23:29:43.346Z,7.28
2022-10-01T23:32:24.946Z,6.25
2022-10-01T23:35:00.303Z,3.75
2022-10-01T23:38:07.139Z,9.88
2022-10-01T23:40:40.229Z,11.05
2022-10-01T23:43:12.620Z,5.38
2022-10-01T23:45:46.026Z,8.25
2022-10-01T23:48:19.254Z,8.40
2022-10-01T23:50:54.195Z,6.18
2022-10-01T23:53:26.193Z,11.77
2022-10-01T23:56:22.013Z,8.80
2022-10-01T23:58:56.018Z,10.45
